createdAt,value
2022-12-29T00:00:01.457Z,132.95
2022-12-29T00:02:28.316Z,139.60
2022-12-29T00:04:55.113Z,136.32
2022-12-29T00:07:21.911Z,150.57
2022-12-29T00:09:48.702Z,137.10
2022-12-29T00:12:15.618Z,150.70
2022-12-29T00:15:00.964Z,148.40
2022-12-29T00:17:27.637Z,138.80
2022-12-29T00:20:20.342Z,138.68
2022-12-29T00:23:05.758Z,133.77
2022-12-29T00:25:50.996Z,148.90
2022-12-29T00:28:36.531Z,139.90
2022-12-29T00:31:31.225Z,139.70
2022-12-29T00:34:17.563Z,150.77
2022-12-29T00:36:45.756Z,130.07
2022-12-29T00:39:37.924Z,139.80
2022-12-29T00:42:38.968Z,137.25
2022-12-29T00:45:06.455Z,150.63
2022-12-29T00:47:33.949Z,135.45
2022-12-29T00:50:01.032Z,150.65
2022-12-29T00:52:28.068Z,160.75
2022-12-29T00:54:54.947Z,151.23
2022-12-29T00:57:21.762Z,141.73
2022-12-29T00:59:48.589Z,142.50
2022-12-29T01:02:16.638Z,138.02
2022-12-29T01:04:43.753Z,145.50
2022-12-29T01:07:10.484Z,135.02
2022-12-29T01:09:56.418Z,137.20
2022-12-29T01:12:41.665Z,149.07
2022-12-29T01:15:14.229Z,143.88
2022-12-29T01:17:42.050Z,144.88
2022-12-29T01:20:09.321Z,141.68
2022-12-29T01:22:36.184Z,151.05
2022-12-29T01:25:03.440Z,133.02
2022-12-29T01:27:30.293Z,139.23
2022-12-29T01:29:57.060Z,147.60
2022-12-29T01:32:24.147Z,140.55
2022-12-29T01:34:50.883Z,133.10
2022-12-29T01:37:17.687Z,151.10
2022-12-29T01:39:44.884Z,146.73
2022-12-29T01:42:18.381Z,147.00
2022-12-29T01:45:22.477Z,138.52
2022-12-29T01:47:54.285Z,141.68
2022-12-29T01:50:32.017Z,148.15
2022-12-29T01:53:16.172Z,127.22
2022-12-29T01:55:53.248Z,149.43
2022-12-29T01:58:23.639Z,133.75
2022-12-29T02:00:50.370Z,131.30
2022-12-29T02:03:20.965Z,139.38
2022-12-29T02:06:03.347Z,141.00
2022-12-29T02:08:31.372Z,130.48
2022-12-29T02:11:01.210Z,123.45
2022-12-29T02:13:29.033Z,138.43
2022-12-29T02:16:08.816Z,141.68
2022-12-29T02:18:54.800Z,139.27
2022-12-29T02:21:47.302Z,136.57
2022-12-29T02:24:29.299Z,131.45
2022-12-29T02:27:05.122Z,126.97
2022-12-29T02:30:07.428Z,135.15
2022-12-29T02:33:08.706Z,128.13
2022-12-29T02:35:48.567Z,142.40
2022-12-29T02:38:23.433Z,137.32
2022-12-29T02:40:58.769Z,139.15
2022-12-29T02:43:40.143Z,129.38
2022-12-29T02:46:22.209Z,136.60
2022-12-29T02:49:10.588Z,141.05
2022-12-29T02:51:45.463Z,141.68
2022-12-29T02:54:30.864Z,137.73
2022-12-29T02:56:57.598Z,135.40
2022-12-29T02:59:25.057Z,121.53
2022-12-29T03:02:26.918Z,122.65
2022-12-29T03:05:18.774Z,129.50
2022-12-29T03:07:51.787Z,121.20
2022-12-29T03:10:27.633Z,128.20
2022-12-29T03:13:41.269Z,142.93
2022-12-29T03:16:20.153Z,132.32
2022-12-29T03:18:50.282Z,123.43
2022-12-29T03:21:48.017Z,132.88
2022-12-29T03:24:21.705Z,129.13
2022-12-29T03:26:50.481Z,127.63
2022-12-29T03:29:21.477Z,124.05
2022-12-29T03:31:52.246Z,130.48
2022-12-29T03:34:21.957Z,127.82
2022-12-29T03:36:54.784Z,130.43
2022-12-29T03:39:24.754Z,138.88
2022-12-29T03:41:58.942Z,136.85
2022-12-29T03:44:41.085Z,125.72
2022-12-29T03:47:12.226Z,131.88
2022-12-29T03:49:39.269Z,128.60
2022-12-29T03:52:06.494Z,126.25
2022-12-29T03:54:41.251Z,133.50
2022-12-29T03:57:08.091Z,142.05
2022-12-29T03:59:47.883Z,140.48
2022-12-29T04:02:16.151Z,142.82
2022-12-29T04:04:43.048Z,136.93
2022-12-29T04:07:10.335Z,142.38
2022-12-29T04:09:37.138Z,131.00
2022-12-29T04:12:04.501Z,138.32
2022-12-29T04:14:34.421Z,132.15
2022-12-29T04:17:02.174Z,138.27
2022-12-29T04:19:29.738Z,124.88
2022-12-29T04:21:56.456Z,143.07
2022-12-29T04:24:23.754Z,135.48
2022-12-29T04:26:52.407Z,128.80
2022-12-29T04:29:30.516Z,131.50
2022-12-29T04:32:13.313Z,129.35
2022-12-29T04:34:46.261Z,128.77
2022-12-29T04:37:13.044Z,136.20
2022-12-29T04:39:39.963Z,139.25
2022-12-29T04:42:07.897Z,121.35
2022-12-29T04:44:37.574Z,128.38
2022-12-29T04:47:29.737Z,134.95
2022-12-29T04:50:15.054Z,140.38
2022-12-29T04:52:53.016Z,122.82
2022-12-29T04:55:19.909Z,131.05
2022-12-29T04:57:46.689Z,142.20
2022-12-29T05:00:18.203Z,136.77
2022-12-29T05:02:46.705Z,136.40
2022-12-29T05:05:15.219Z,146.40
2022-12-29T05:07:46.637Z,142.77
2022-12-29T05:10:13.558Z,131.38
2022-12-29T05:12:41.613Z,129.63
2022-12-29T05:15:09.925Z,130.35
2022-12-29T05:17:38.576Z,130.82
2022-12-29T05:20:07.830Z,129.68
2022-12-29T05:22:36.131Z,132.40
2022-12-29T05:25:03.466Z,130.93
2022-12-29T05:27:33.741Z,128.43
2022-12-29T05:30:18.152Z,138.55
2022-12-29T05:32:45.194Z,144.75
2022-12-29T05:35:11.940Z,134.35
2022-12-29T05:37:38.907Z,138.10
2022-12-29T05:40:07.404Z,133.35
2022-12-29T05:42:35.087Z,133.75
2022-12-29T05:45:26.955Z,133.43
2022-12-29T05:47:59.538Z,136.15
2022-12-29T05:50:49.931Z,136.85
2022-12-29T05:53:19.495Z,127.85
2022-12-29T05:55:50.272Z,137.88
2022-12-29T05:58:18.630Z,141.80
2022-12-29T06:00:45.751Z,138.65
2022-12-29T06:03:13.147Z,141.70
2022-12-29T06:05:40.014Z,138.80
2022-12-29T06:08:06.891Z,135.45
2022-12-29T06:10:34.461Z,140.38
2022-12-29T06:13:06.548Z,125.88
2022-12-29T06:15:36.933Z,130.32
2022-12-29T06:18:06.465Z,127.38
2022-12-29T06:20:34.714Z,136.23
2022-12-29T06:23:04.077Z,125.28
2022-12-29T06:25:33.353Z,139.95
2022-12-29T06:28:00.683Z,133.95
2022-12-29T06:30:27.463Z,130.30
2022-12-29T06:32:55.301Z,144.98
2022-12-29T06:35:25.238Z,146.50
2022-12-29T06:37:52.591Z,147.45
2022-12-29T06:40:20.666Z,153.68
2022-12-29T06:43:10.477Z,134.30
2022-12-29T06:46:00.194Z,136.73
2022-12-29T06:48:27.052Z,133.55
2022-12-29T06:50:53.747Z,146.48
2022-12-29T06:53:23.462Z,133.35
2022-12-29T06:55:50.178Z,143.05
2022-12-29T06:58:16.970Z,135.00
2022-12-29T07:00:44.184Z,144.23
2022-12-29T07:03:11.154Z,142.07
2022-12-29T07:05:38.114Z,138.27
2022-12-29T07:08:05.086Z,132.32
2022-12-29T07:10:31.851Z,130.35
2022-12-29T07:12:59.183Z,139.98
2022-12-29T07:15:25.882Z,133.25
2022-12-29T07:17:52.770Z,140.10
2022-12-29T07:20:24.783Z,145.27
2022-12-29T07:22:53.421Z,145.48
2022-12-29T07:25:20.239Z,132.38
2022-12-29T07:27:46.988Z,135.90
2022-12-29T07:30:13.999Z,135.25
2022-12-29T07:32:40.740Z,134.13
2022-12-29T07:35:07.984Z,134.38
2022-12-29T07:37:35.514Z,149.70
2022-12-29T07:40:04.428Z,134.73
2022-12-29T07:42:32.367Z,141.02
2022-12-29T07:45:00.018Z,153.50
2022-12-29T07:47:50.322Z,131.43
2022-12-29T07:50:17.620Z,141.77
2022-12-29T07:52:44.585Z,138.95
2022-12-29T07:55:11.568Z,139.95
2022-12-29T07:57:38.459Z,125.85
2022-12-29T08:00:05.745Z,145.00
2022-12-29T08:02:38.624Z,148.57
2022-12-29T08:05:05.863Z,138.55
2022-12-29T08:07:32.604Z,138.80
2022-12-29T08:09:59.543Z,141.52
2022-12-29T08:12:26.228Z,156.80
2022-12-29T08:14:53.346Z,153.52
2022-12-29T08:17:20.110Z,141.25
2022-12-29T08:19:46.894Z,146.75
2022-12-29T08:22:15.868Z,137.82
2022-12-29T08:24:42.634Z,144.30
2022-12-29T08:27:18.070Z,151.43
2022-12-29T08:29:46.955Z,148.88
2022-12-29T08:32:13.879Z,153.63
2022-12-29T08:34:43.224Z,153.65
2022-12-29T08:37:09.991Z,145.07
2022-12-29T08:39:36.677Z,140.95
2022-12-29T08:42:03.508Z,144.93
2022-12-29T08:44:30.239Z,155.15
2022-12-29T08:46:57.071Z,146.50
2022-12-29T08:49:23.941Z,144.80
2022-12-29T08:51:50.747Z,160.23
2022-12-29T08:54:17.489Z,147.95
2022-12-29T08:56:45.042Z,151.55
2022-12-29T08:59:13.834Z,141.27
2022-12-29T09:01:42.273Z,140.07
2022-12-29T09:04:15.591Z,140.40
2022-12-29T09:06:43.537Z,140.25
2022-12-29T09:09:11.161Z,154.55
2022-12-29T09:11:38.064Z,148.65
2022-12-29T09:14:04.967Z,143.18
2022-12-29T09:16:31.769Z,156.23
2022-12-29T09:18:58.899Z,145.00
2022-12-29T09:21:25.790Z,162.65
2022-12-29T09:23:52.537Z,162.38
2022-12-29T09:26:19.433Z,150.70
2022-12-29T09:28:46.539Z,152.88
2022-12-29T09:31:13.281Z,157.52
2022-12-29T09:33:40.190Z,150.95
2022-12-29T09:36:07.373Z,154.45
2022-12-29T09:38:34.126Z,153.60
2022-12-29T09:41:17.252Z,153.35
2022-12-29T09:43:49.751Z,151.60
2022-12-29T09:46:33.176Z,155.30
2022-12-29T09:49:05.756Z,166.23
2022-12-29T09:51:33.493Z,170.35
2022-12-29T09:54:12.514Z,162.02
2022-12-29T09:56:44.273Z,170.45
2022-12-29T09:59:16.980Z,152.02
2022-12-29T10:01:58.790Z,164.25
2022-12-29T10:04:28.883Z,166.23
2022-12-29T10:07:28.459Z,168.65
2022-12-29T10:10:15.722Z,164.50
2022-12-29T10:13:11.192Z,159.55
2022-12-29T10:15:57.664Z,170.40
2022-12-29T10:18:42.830Z,162.30
2022-12-29T10:21:37.939Z,160.18
2022-12-29T10:24:11.596Z,159.15
2022-12-29T10:26:43.771Z,162.63
2022-12-29T10:29:13.267Z,161.10
2022-12-29T10:31:46.457Z,177.85
2022-12-29T10:34:30.483Z,159.07
2022-12-29T10:37:06.339Z,165.00
2022-12-29T10:39:49.096Z,157.00
2022-12-29T10:42:29.813Z,159.88
2022-12-29T10:44:57.641Z,149.50
2022-12-29T10:47:30.039Z,164.88
2022-12-29T10:49:59.427Z,157.48
2022-12-29T10:52:28.393Z,164.77
2022-12-29T10:54:57.810Z,162.13
2022-12-29T10:57:33.876Z,165.68
2022-12-29T11:00:00.736Z,155.85
2022-12-29T11:02:49.408Z,150.65
2022-12-29T11:05:42.597Z,153.30
2022-12-29T11:08:17.429Z,155.10
2022-12-29T11:10:46.018Z,170.35
2022-12-29T11:13:18.751Z,184.60
2022-12-29T11:15:50.904Z,191.98
2022-12-29T11:18:27.915Z,178.88
2022-12-29T11:21:00.390Z,183.27
2022-12-29T11:23:39.332Z,189.95
2022-12-29T11:26:15.501Z,176.80
2022-12-29T11:31:11.233Z,186.27
2022-12-29T11:33:40.160Z,193.40
2022-12-29T11:36:08.538Z,194.13
2022-12-29T11:38:40.217Z,195.60
2022-12-29T11:41:11.950Z,192.63
2022-12-29T11:43:43.132Z,182.00
2022-12-29T11:46:29.059Z,181.10
2022-12-29T11:49:00.607Z,186.57
2022-12-29T11:51:47.108Z,182.77
2022-12-29T11:54:40.402Z,178.65
2022-12-29T11:57:17.071Z,179.25
2022-12-29T11:59:56.520Z,189.25
2022-12-29T12:02:26.184Z,182.93
2022-12-29T12:05:02.456Z,184.68
2022-12-29T12:07:43.922Z,179.45
2022-12-29T12:10:34.912Z,179.90
2022-12-29T12:13:09.102Z,185.48
2022-12-29T12:15:47.506Z,183.65
2022-12-29T12:18:19.807Z,181.15
2022-12-29T12:20:51.856Z,179.13
2022-12-29T12:23:44.738Z,185.38
2022-12-29T12:26:19.756Z,182.68
2022-12-29T12:28:55.448Z,179.30
2022-12-29T12:31:40.393Z,179.13
2022-12-29T12:34:15.093Z,178.48
2022-12-29T12:36:51.781Z,188.52
2022-12-29T12:39:48.496Z,177.77
2022-12-29T12:42:52.903Z,177.68
2022-12-29T12:45:31.367Z,178.52
2022-12-29T12:48:19.538Z,178.05
2022-12-29T12:51:07.948Z,177.43
2022-12-29T12:53:38.138Z,179.45
2022-12-29T12:56:10.279Z,187.90
2022-12-29T12:59:05.669Z,185.73
2022-12-29T13:02:13.945Z,185.07
2022-12-29T13:04:52.680Z,184.25
2022-12-29T13:07:54.675Z,177.90
2022-12-29T13:10:33.945Z,177.15
2022-12-29T13:13:19.628Z,180.95
2022-12-29T13:16:13.861Z,179.57
2022-12-29T13:18:59.365Z,174.05
2022-12-29T13:22:00.006Z,173.55
2022-12-29T13:24:36.316Z,174.75
2022-12-29T13:27:25.787Z,167.98
2022-12-29T13:30:20.577Z,172.07
2022-12-29T13:32:56.558Z,178.30
2022-12-29T13:35:42.039Z,174.57
2022-12-29T13:38:17.816Z,175.63
2022-12-29T13:40:50.915Z,180.10
2022-12-29T13:43:19.890Z,175.05
2022-12-29T13:45:51.567Z,181.45
2022-12-29T13:48:22.488Z,168.13
2022-12-29T13:50:58.276Z,177.82
2022-12-29T13:53:55.518Z,173.07
2022-12-29T13:56:27.216Z,173.27
2022-12-29T13:58:59.801Z,180.98
2022-12-29T14:01:36.787Z,174.25
2022-12-29T14:04:15.479Z,174.52
2022-12-29T14:06:46.219Z,172.45
2022-12-29T14:09:43.355Z,170.27
2022-12-29T14:15:05.650Z,165.55
2022-12-29T14:17:43.916Z,171.45
2022-12-29T14:20:22.323Z,181.40
2022-12-29T14:23:10.814Z,173.45
2022-12-29T14:25:52.883Z,176.15
2022-12-29T14:28:31.847Z,184.80
2022-12-29T14:31:25.958Z,172.82
2022-12-29T14:34:13.474Z,182.48
2022-12-29T14:36:55.678Z,171.10
2022-12-29T14:39:44.101Z,187.00
2022-12-29T14:42:10.770Z,170.90
2022-12-29T14:44:52.332Z,176.55
2022-12-29T14:47:32.155Z,173.68
2022-12-29T14:50:08.211Z,175.85
2022-12-29T14:52:43.825Z,165.20
2022-12-29T14:55:16.697Z,179.07
2022-12-29T14:57:52.310Z,173.77
2022-12-29T15:00:30.853Z,175.18
2022-12-29T15:03:08.147Z,171.65
2022-12-29T15:05:44.382Z,167.57
2022-12-29T15:08:13.473Z,167.57
2022-12-29T15:10:48.824Z,169.75
2022-12-29T15:13:23.904Z,170.10
2022-12-29T15:15:50.681Z,174.63
2022-12-29T15:18:23.973Z,167.77
2022-12-29T15:21:01.217Z,165.63
2022-12-29T15:23:30.188Z,171.10
2022-12-29T15:26:07.166Z,173.55
2022-12-29T15:28:44.685Z,177.60
2022-12-29T15:31:26.373Z,166.90
2022-12-29T15:34:10.636Z,169.30
2022-12-29T15:36:40.431Z,172.60
2022-12-29T15:39:29.788Z,168.30
2022-12-29T15:42:17.260Z,169.43
2022-12-29T15:44:45.394Z,174.23
2022-12-29T15:47:22.212Z,167.63
2022-12-29T15:49:51.679Z,170.65
2022-12-29T15:52:21.105Z,169.85
2022-12-29T15:54:51.462Z,175.77
2022-12-29T15:57:37.000Z,173.85
2022-12-29T16:00:05.243Z,162.82
2022-12-29T16:02:40.385Z,164.55
2022-12-29T16:05:17.789Z,165.63
2022-12-29T16:08:00.101Z,167.45
2022-12-29T16:10:34.651Z,159.88
2022-12-29T16:13:24.646Z,181.32
2022-12-29T16:15:57.386Z,213.70
2022-12-29T16:18:32.999Z,172.60
2022-12-29T16:21:16.371Z,174.77
2022-12-29T16:23:48.139Z,177.15
2022-12-29T16:26:20.194Z,177.70
2022-12-29T16:28:51.814Z,187.13
2022-12-29T16:31:24.455Z,177.05
2022-12-29T16:33:54.363Z,173.48
2022-12-29T16:36:32.549Z,169.30
2022-12-29T16:39:22.917Z,170.63
2022-12-29T16:41:51.324Z,175.93
2022-12-29T16:44:21.173Z,174.55
2022-12-29T16:47:20.298Z,176.77
2022-12-29T16:49:53.560Z,183.32
2022-12-29T16:52:49.500Z,174.85
2022-12-29T16:55:20.600Z,173.05
2022-12-29T16:57:50.369Z,177.98
2022-12-29T17:00:25.672Z,171.82
2022-12-29T17:02:57.169Z,173.60
2022-12-29T17:05:24.632Z,164.93
2022-12-29T17:07:55.929Z,175.50
2022-12-29T17:10:42.638Z,165.65
2022-12-29T17:15:36.094Z,170.63
2022-12-29T17:18:06.275Z,171.18
2022-12-29T17:20:35.517Z,169.35
2022-12-29T17:23:02.709Z,166.43
2022-12-29T17:25:36.590Z,176.00
2022-12-29T17:28:15.085Z,171.05
2022-12-29T17:30:41.934Z,168.27
2022-12-29T17:33:21.813Z,170.65
2022-12-29T17:35:53.359Z,181.65
2022-12-29T17:38:29.469Z,167.35
2022-12-29T17:40:56.615Z,168.52
2022-12-29T17:43:23.716Z,165.98
2022-12-29T17:45:58.543Z,165.63
2022-12-29T17:48:25.655Z,163.15
2022-12-29T17:50:54.456Z,171.65
2022-12-29T17:53:26.835Z,163.93
2022-12-29T17:55:53.762Z,170.40
2022-12-29T17:58:26.370Z,169.45
2022-12-29T18:00:58.661Z,162.27
2022-12-29T18:03:32.138Z,163.57
2022-12-29T18:05:59.249Z,161.18
2022-12-29T18:08:26.145Z,162.30
2022-12-29T18:10:54.041Z,159.13
2022-12-29T18:13:35.788Z,154.55
2022-12-29T18:16:06.165Z,168.80
2022-12-29T18:18:32.929Z,173.27
2022-12-29T18:21:00.340Z,168.82
2022-12-29T18:23:36.208Z,159.57
2022-12-29T18:26:12.394Z,172.20
2022-12-29T18:31:16.612Z,169.65
2022-12-29T18:33:43.361Z,161.00
2022-12-29T18:36:12.069Z,165.82
2022-12-29T18:38:38.988Z,161.10
2022-12-29T18:41:06.840Z,163.82
2022-12-29T18:43:33.580Z,178.43
2022-12-29T18:46:00.403Z,172.35
2022-12-29T18:48:28.055Z,160.75
2022-12-29T18:50:55.132Z,161.80
2022-12-29T18:53:24.228Z,160.75
2022-12-29T18:55:52.745Z,169.50
2022-12-29T18:58:19.983Z,163.80
2022-12-29T19:00:47.063Z,174.13
2022-12-29T19:03:16.825Z,164.13
2022-12-29T19:05:46.039Z,177.93
2022-12-29T19:08:13.572Z,173.93
2022-12-29T19:10:41.919Z,167.43
2022-12-29T19:13:16.500Z,158.07
2022-12-29T19:15:43.574Z,172.00
2022-12-29T19:20:58.612Z,163.00
2022-12-29T19:23:26.727Z,164.13
2022-12-29T19:25:56.623Z,160.45
2022-12-29T19:28:25.987Z,160.60
2022-12-29T19:30:57.240Z,156.20
2022-12-29T19:33:24.731Z,166.80
2022-12-29T19:35:52.508Z,166.38
2022-12-29T19:38:20.353Z,168.38
2022-12-29T19:40:51.034Z,160.48
2022-12-29T19:43:18.855Z,164.95
2022-12-29T19:45:46.067Z,172.60
2022-12-29T19:48:15.819Z,165.10
2022-12-29T19:50:43.816Z,161.98
2022-12-29T19:53:11.532Z,161.30
2022-12-29T19:55:45.069Z,165.10
2022-12-29T19:58:12.634Z,162.65
2022-12-29T20:00:43.679Z,164.50
2022-12-29T20:03:10.874Z,196.55
2022-12-29T20:05:39.139Z,171.43
2022-12-29T20:08:06.355Z,158.25
2022-12-29T20:10:33.435Z,162.27
2022-12-29T20:13:00.177Z,160.98
2022-12-29T20:15:26.943Z,162.55
2022-12-29T20:23:07.110Z,149.07
2022-12-29T20:25:44.801Z,156.63
2022-12-29T20:28:12.952Z,163.85
2022-12-29T20:30:39.761Z,152.38
2022-12-29T20:33:08.493Z,162.35
2022-12-29T20:35:36.795Z,169.43
2022-12-29T20:38:04.098Z,171.68
2022-12-29T20:40:32.339Z,166.45
2022-12-29T20:42:59.131Z,170.10
2022-12-29T20:45:26.485Z,168.15
2022-12-29T20:47:53.391Z,161.15
2022-12-29T20:50:20.302Z,168.32
2022-12-29T20:52:47.135Z,166.50
2022-12-29T20:55:14.272Z,165.63
2022-12-29T21:02:58.287Z,162.35
2022-12-29T21:05:26.145Z,161.52
2022-12-29T21:07:54.072Z,163.07
2022-12-29T21:10:21.668Z,174.77
2022-12-29T21:12:48.872Z,160.10
2022-12-29T21:15:18.540Z,166.90
2022-12-29T21:17:45.625Z,160.00
2022-12-29T21:20:20.004Z,164.10
2022-12-29T21:22:47.606Z,152.15
2022-12-29T21:25:14.761Z,166.77
2022-12-29T21:27:44.443Z,171.30
2022-12-29T21:30:12.486Z,163.90
2022-12-29T21:32:39.642Z,151.48
2022-12-29T21:35:06.926Z,165.93
2022-12-29T21:37:34.110Z,156.68
2022-12-29T21:40:00.872Z,167.95
2022-12-29T21:42:27.743Z,159.02
2022-12-29T21:45:18.342Z,162.57
2022-12-29T21:48:05.834Z,157.18
2022-12-29T21:50:32.618Z,155.20
2022-12-29T21:52:59.378Z,161.48
2022-12-29T21:55:28.117Z,153.98
2022-12-29T21:58:13.393Z,153.57
2022-12-29T22:00:58.609Z,145.35
2022-12-29T22:03:44.030Z,160.77
2022-12-29T22:06:30.070Z,163.60
2022-12-29T22:09:15.429Z,164.82
2022-12-29T22:12:00.702Z,157.25
2022-12-29T22:14:27.507Z,153.27
2022-12-29T22:16:54.216Z,158.23
2022-12-29T22:19:21.097Z,153.45
2022-12-29T22:21:47.840Z,156.73
2022-12-29T22:24:14.790Z,162.77
2022-12-29T22:26:41.582Z,160.10
2022-12-29T22:29:08.329Z,158.82
2022-12-29T22:31:35.242Z,159.80
2022-12-29T22:34:03.635Z,155.40
2022-12-29T22:36:32.262Z,156.25
2022-12-29T22:38:59.257Z,170.27
2022-12-29T22:41:26.010Z,156.60
2022-12-29T22:43:52.881Z,156.02
2022-12-29T22:46:20.026Z,157.98
2022-12-29T22:48:47.014Z,151.95
2022-12-29T22:51:14.015Z,161.90
2022-12-29T22:53:41.728Z,159.25
2022-12-29T22:56:11.239Z,161.68
2022-12-29T22:58:47.438Z,160.05
2022-12-29T23:03:44.134Z,156.10
2022-12-29T23:06:14.108Z,155.40
2022-12-29T23:08:40.860Z,160.07
2022-12-29T23:11:10.419Z,160.27
2022-12-29T23:13:37.283Z,157.27
2022-12-29T23:16:04.412Z,170.45
2022-12-29T23:18:31.153Z,171.52
2022-12-29T23:20:58.047Z,154.70
2022-12-29T23:23:48.742Z,158.48
2022-12-29T23:26:24.808Z,161.75
2022-12-29T23:28:56.287Z,159.30
2022-12-29T23:31:27.620Z,159.82
2022-12-29T23:33:55.573Z,160.35
2022-12-29T23:36:23.251Z,160.57
2022-12-29T23:38:50.000Z,156.77
2022-12-29T23:41:16.787Z,166.75
2022-12-29T23:43:43.521Z,156.82
2022-12-29T23:46:23.916Z,160.77
2022-12-29T23:48:51.300Z,161.13
2022-12-29T23:51:18.376Z,154.43
2022-12-29T23:53:46.059Z,170.02
2022-12-29T23:56:19.748Z,158.80
2022-12-29T23:58:46.956Z,163.48
